Aérodrome :
LOGIN :

S'inscrire | Disclaimer

   EN    FR    IT 

 










Légende :    VFR   VFR Marginal   IFR   IFR Intensif   IFR Très Intensif
Visi : 
Plafond : 
>= 8 km
>= 3000ft
5 à 8 km
1000 à 3000 ft
1500m à 5 km
500 à 1000 ft
800 à 1500m
200 à 500 ft
< 800m
< 200 ft
Symboles :   Orages  Brouillard  Fortes neiges  Fortes précipitations  Vent > 20 kt
SIGMETs :   Divers  Orages  Givrage  Turbulence  Onde Orograph.  Cendres Volcan.






- Altitude de l'aérodrome : 297 ft
- Code IATA : ODB


LEBA - Córdoba

DERNIER METAR :
  • 242300Z AUTO 26004KT CAVOK 21/10 Q1022

METARs EXPIRÉS :
  • 242230Z AUTO 27005KT CAVOK 21/09 Q1023
  • 242200Z AUTO 25006KT CAVOK 23/09 Q1022
  • 242130Z AUTO 25006KT CAVOK 23/09 Q1022
  • 242100Z AUTO 25005KT CAVOK 24/09 Q1022
  • 242030Z AUTO 25006KT CAVOK 26/08 Q1021

TAF TAF LEBA
Valide du 24 à 18h jusqu'au 25 à 03h UTC


241700Z 2418/2503 22007KT CAVOK



MET'MAP, la Météo Aéronautique d'un coup d'oeil ! - Copyright ORBIFLY Décembre 2007 - Disclaimer

ORBIFLY MET'MAP TEAM :

Programmation & Développement : Alexandra Zaïnal
Sur une idée originale de : Baudouin d'Aumeries
Assistance à la programmation : Marc-Olivier Méhu
Soutien technique & logistique : Manuel Goepfert

Contact : metmap@orbifly.com




SOURCES & CREDITS :

   NOAA